Aviation Digital Data Service (ADDS)

Output produced by METARs form (0357 UTC 01 November 2014)
found at http://aviationweather.gov/adds/metars/
 
KPQI 312320Z 0100/0124 36007KT P6SM OVC050 
     FM011700 03010G20KT P6SM OVC050 AMD LTD TO CLD VIS AND WIND